sensor_id;sensor_type;location;lat;lon;timestamp;P1;durP1;ratioP1;P2;durP2;ratioP2
53835;SDS011;39737;43.334;21.936;2022-11-23T00:00:16;0.50;;;0.50;;
53835;SDS011;39737;43.334;21.936;2022-11-23T00:03:02;0.63;;;0.63;;
53835;SDS011;39737;43.334;21.936;2022-11-23T00:05:48;0.85;;;0.82;;
53835;SDS011;39737;43.334;21.936;2022-11-23T00:08:35;0.60;;;0.60;;
53835;SDS011;39737;43.334;21.936;2022-11-23T00:11:24;4.38;;;2.45;;
53835;SDS011;39737;43.334;21.936;2022-11-23T00:14:10;4.15;;;1.88;;
53835;SDS011;39737;43.334;21.936;2022-11-23T00:16:56;3.03;;;2.35;;
53835;SDS011;39737;43.334;21.936;2022-11-23T00:19:43;0.50;;;0.50;;
53835;SDS011;39737;43.334;21.936;2022-11-23T00:22:29;0.50;;;0.50;;
53835;SDS011;39737;43.334;21.936;2022-11-23T00:25:14;9.48;;;3.13;;
53835;SDS011;39737;43.334;21.936;2022-11-23T00:28:01;1.13;;;1.13;;
53835;SDS011;39737;43.334;21.936;2022-11-23T00:30:47;0.52;;;0.52;;
53835;SDS011;39737;43.334;21.936;2022-11-23T00:33:33;12.68;;;5.82;;
53835;SDS011;39737;43.334;21.936;2022-11-23T00:36:20;1.10;;;1.08;;
53835;SDS011;39737;43.334;21.936;2022-11-23T00:39:06;0.73;;;0.73;;
53835;SDS011;39737;43.334;21.936;2022-11-23T00:42:10;0.93;;;0.93;;
53835;SDS011;39737;43.334;21.936;2022-11-23T00:44:58;0.60;;;0.60;;
53835;SDS011;39737;43.334;21.936;2022-11-23T00:47:44;6.38;;;2.80;;
53835;SDS011;39737;43.334;21.936;2022-11-23T00:50:30;1.48;;;1.02;;
53835;SDS011;39737;43.334;21.936;2022-11-23T00:53:16;0.88;;;0.88;;
53835;SDS011;39737;43.334;21.936;2022-11-23T00:56:02;2.83;;;2.15;;
53835;SDS011;39737;43.334;21.936;2022-11-23T00:58:49;2.85;;;2.20;;
53835;SDS011;39737;43.334;21.936;2022-11-23T01:01:35;2.28;;;1.17;;
53835;SDS011;39737;43.334;21.936;2022-11-23T01:04:26;5.70;;;1.23;;
53835;SDS011;39737;43.334;21.936;2022-11-23T01:07:16;5.03;;;3.03;;
53835;SDS011;39737;43.334;21.936;2022-11-23T01:10:02;0.50;;;0.50;;
53835;SDS011;39737;43.334;21.936;2022-11-23T01:12:50;3.33;;;1.95;;
53835;SDS011;39737;43.334;21.936;2022-11-23T01:15:36;1.58;;;0.60;;
53835;SDS011;39737;43.334;21.936;2022-11-23T01:18:22;2.15;;;2.05;;
53835;SDS011;39737;43.334;21.936;2022-11-23T01:21:08;1.30;;;0.70;;
53835;SDS011;39737;43.334;21.936;2022-11-23T01:23:57;3.05;;;2.28;;
53835;SDS011;39737;43.334;21.936;2022-11-23T01:26:43;3.35;;;2.10;;
53835;SDS011;39737;43.334;21.936;2022-11-23T01:29:29;0.68;;;0.68;;
53835;SDS011;39737;43.334;21.936;2022-11-23T01:32:19;0.55;;;0.55;;
53835;SDS011;39737;43.334;21.936;2022-11-23T01:35:05;1.40;;;1.30;;
53835;SDS011;39737;43.334;21.936;2022-11-23T01:37:51;3.25;;;2.00;;
53835;SDS011;39737;43.334;21.936;2022-11-23T01:40:42;0.40;;;0.40;;
53835;SDS011;39737;43.334;21.936;2022-11-23T01:43:29;0.55;;;0.55;;
53835;SDS011;39737;43.334;21.936;2022-11-23T01:46:15;0.60;;;0.60;;
53835;SDS011;39737;43.334;21.936;2022-11-23T01:49:02;1.08;;;0.65;;
53835;SDS011;39737;43.334;21.936;2022-11-23T01:51:49;3.90;;;2.33;;
53835;SDS011;39737;43.334;21.936;2022-11-23T01:54:44;0.85;;;0.85;;
53835;SDS011;39737;43.334;21.936;2022-11-23T01:57:32;0.50;;;0.50;;
53835;SDS011;39737;43.334;21.936;2022-11-23T02:00:20;3.15;;;2.08;;
53835;SDS011;39737;43.334;21.936;2022-11-23T02:03:06;5.10;;;2.22;;
53835;SDS011;39737;43.334;21.936;2022-11-23T02:05:54;1.55;;;0.65;;
53835;SDS011;39737;43.334;21.936;2022-11-23T02:08:45;0.35;;;0.35;;
53835;SDS011;39737;43.334;21.936;2022-11-23T02:11:31;0.73;;;0.73;;
53835;SDS011;39737;43.334;21.936;2022-11-23T02:14:17;3.50;;;1.75;;
53835;SDS011;39737;43.334;21.936;2022-11-23T02:17:10;4.45;;;2.47;;
53835;SDS011;39737;43.334;21.936;2022-11-23T02:28:31;6.70;;;2.40;;
53835;SDS011;39737;43.334;21.936;2022-11-23T02:31:18;0.63;;;0.63;;
53835;SDS011;39737;43.334;21.936;2022-11-23T02:34:05;0.95;;;0.95;;
53835;SDS011;39737;43.334;21.936;2022-11-23T02:36:54;4.85;;;2.72;;
53835;SDS011;39737;43.334;21.936;2022-11-23T02:39:45;6.38;;;1.95;;
53835;SDS011;39737;43.334;21.936;2022-11-23T02:42:32;0.63;;;0.63;;
53835;SDS011;39737;43.334;21.936;2022-11-23T02:48:20;2.33;;;2.10;;
53835;SDS011;39737;43.334;21.936;2022-11-23T02:51:06;0.77;;;0.70;;
53835;SDS011;39737;43.334;21.936;2022-11-23T02:53:52;0.60;;;0.60;;
53835;SDS011;39737;43.334;21.936;2022-11-23T02:56:56;5.35;;;2.40;;
53835;SDS011;39737;43.334;21.936;2022-11-23T02:59:42;0.77;;;0.77;;
53835;SDS011;39737;43.334;21.936;2022-11-23T03:02:29;0.60;;;0.60;;
53835;SDS011;39737;43.334;21.936;2022-11-23T03:05:15;0.85;;;0.85;;
53835;SDS011;39737;43.334;21.936;2022-11-23T03:08:01;0.57;;;0.57;;
53835;SDS011;39737;43.334;21.936;2022-11-23T03:10:47;2.22;;;1.77;;
53835;SDS011;39737;43.334;21.936;2022-11-23T03:13:33;0.60;;;0.60;;
53835;SDS011;39737;43.334;21.936;2022-11-23T03:16:19;0.77;;;0.77;;
53835;SDS011;39737;43.334;21.936;2022-11-23T03:19:06;2.50;;;1.90;;
53835;SDS011;39737;43.334;21.936;2022-11-23T03:21:53;0.70;;;0.70;;
53835;SDS011;39737;43.334;21.936;2022-11-23T03:24:39;0.95;;;0.95;;
53835;SDS011;39737;43.334;21.936;2022-11-23T03:27:28;0.60;;;0.60;;
53835;SDS011;39737;43.334;21.936;2022-11-23T03:30:17;0.90;;;0.90;;
53835;SDS011;39737;43.334;21.936;2022-11-23T03:33:03;0.80;;;0.75;;
53835;SDS011;39737;43.334;21.936;2022-11-23T03:35:50;7.13;;;0.98;;
53835;SDS011;39737;43.334;21.936;2022-11-23T03:38:39;0.70;;;0.70;;
53835;SDS011;39737;43.334;21.936;2022-11-23T03:41:38;9.15;;;4.03;;
53835;SDS011;39737;43.334;21.936;2022-11-23T03:44:26;0.60;;;0.60;;
53835;SDS011;39737;43.334;21.936;2022-11-23T03:47:12;0.65;;;0.65;;
53835;SDS011;39737;43.334;21.936;2022-11-23T03:49:59;2.85;;;1.25;;
53835;SDS011;39737;43.334;21.936;2022-11-23T03:52:47;4.85;;;2.88;;
53835;SDS011;39737;43.334;21.936;2022-11-23T03:55:52;24.33;;;2.90;;
53835;SDS011;39737;43.334;21.936;2022-11-23T03:58:42;4.28;;;2.40;;
53835;SDS011;39737;43.334;21.936;2022-11-23T04:01:31;4.38;;;2.13;;
53835;SDS011;39737;43.334;21.936;2022-11-23T04:04:22;2.20;;;2.05;;
53835;SDS011;39737;43.334;21.936;2022-11-23T04:07:30;3.92;;;2.60;;
53835;SDS011;39737;43.334;21.936;2022-11-23T04:10:20;8.45;;;4.63;;
53835;SDS011;39737;43.334;21.936;2022-11-23T04:13:29;2.75;;;2.55;;
53835;SDS011;39737;43.334;21.936;2022-11-23T04:16:15;26.67;;;2.42;;
53835;SDS011;39737;43.334;21.936;2022-11-23T04:19:01;19.17;;;9.48;;
53835;SDS011;39737;43.334;21.936;2022-11-23T04:21:47;0.90;;;0.90;;
53835;SDS011;39737;43.334;21.936;2022-11-23T04:24:33;2.45;;;2.05;;
53835;SDS011;39737;43.334;21.936;2022-11-23T04:27:22;1.08;;;1.00;;
53835;SDS011;39737;43.334;21.936;2022-11-23T04:30:08;0.82;;;0.82;;
53835;SDS011;39737;43.334;21.936;2022-11-23T04:32:55;0.85;;;0.85;;
53835;SDS011;39737;43.334;21.936;2022-11-23T04:35:41;0.93;;;0.93;;
53835;SDS011;39737;43.334;21.936;2022-11-23T04:38:27;9.82;;;5.55;;
53835;SDS011;39737;43.334;21.936;2022-11-23T04:41:14;0.95;;;0.95;;
53835;SDS011;39737;43.334;21.936;2022-11-23T04:44:00;2.50;;;1.75;;
53835;SDS011;39737;43.334;21.936;2022-11-23T04:46:46;1.70;;;1.45;;
53835;SDS011;39737;43.334;21.936;2022-11-23T04:49:32;3.15;;;2.35;;
53835;SDS011;39737;43.334;21.936;2022-11-23T04:52:18;1.58;;;1.48;;
53835;SDS011;39737;43.334;21.936;2022-11-23T04:55:07;5.50;;;2.35;;
53835;SDS011;39737;43.334;21.936;2022-11-23T04:57:58;1.85;;;1.38;;
53835;SDS011;39737;43.334;21.936;2022-11-23T05:00:47;1.13;;;1.13;;
53835;SDS011;39737;43.334;21.936;2022-11-23T05:03:34;11.85;;;5.78;;
53835;SDS011;39737;43.334;21.936;2022-11-23T05:06:23;1.02;;;1.02;;
53835;SDS011;39737;43.334;21.936;2022-11-23T05:09:11;15.27;;;7.70;;
53835;SDS011;39737;43.334;21.936;2022-11-23T05:12:08;1.75;;;1.65;;
53835;SDS011;39737;43.334;21.936;2022-11-23T05:14:54;1.35;;;1.25;;
53835;SDS011;39737;43.334;21.936;2022-11-23T05:17:46;16.45;;;8.52;;
53835;SDS011;39737;43.334;21.936;2022-11-23T05:20:41;6.80;;;4.30;;
53835;SDS011;39737;43.334;21.936;2022-11-23T05:23:28;4.78;;;4.18;;
53835;SDS011;39737;43.334;21.936;2022-11-23T05:26:16;4.88;;;4.28;;
53835;SDS011;39737;43.334;21.936;2022-11-23T05:29:02;4.35;;;3.30;;
53835;SDS011;39737;43.334;21.936;2022-11-23T05:31:48;8.10;;;6.13;;
53835;SDS011;39737;43.334;21.936;2022-11-23T05:34:35;18.92;;;12.60;;
53835;SDS011;39737;43.334;21.936;2022-11-23T05:37:22;4.72;;;3.22;;
53835;SDS011;39737;43.334;21.936;2022-11-23T05:40:14;3.65;;;2.72;;
53835;SDS011;39737;43.334;21.936;2022-11-23T05:43:00;18.65;;;10.57;;
53835;SDS011;39737;43.334;21.936;2022-11-23T05:45:47;2.15;;;1.90;;
53835;SDS011;39737;43.334;21.936;2022-11-23T05:48:35;4.95;;;2.55;;
53835;SDS011;39737;43.334;21.936;2022-11-23T05:51:27;3.70;;;2.85;;
53835;SDS011;39737;43.334;21.936;2022-11-23T05:54:13;14.10;;;8.02;;
53835;SDS011;39737;43.334;21.936;2022-11-23T05:57:03;3.05;;;1.73;;
53835;SDS011;39737;43.334;21.936;2022-11-23T05:59:57;21.88;;;12.40;;
53835;SDS011;39737;43.334;21.936;2022-11-23T06:03:00;3.67;;;3.33;;
53835;SDS011;39737;43.334;21.936;2022-11-23T06:05:49;2.60;;;2.25;;
53835;SDS011;39737;43.334;21.936;2022-11-23T06:08:41;5.00;;;2.53;;
53835;SDS011;39737;43.334;21.936;2022-11-23T06:11:34;2.13;;;1.92;;
53835;SDS011;39737;43.334;21.936;2022-11-23T06:14:26;5.35;;;4.50;;
53835;SDS011;39737;43.334;21.936;2022-11-23T06:17:12;45.05;;;23.25;;
53835;SDS011;39737;43.334;21.936;2022-11-23T06:20:07;13.70;;;6.68;;
53835;SDS011;39737;43.334;21.936;2022-11-23T06:22:58;3.75;;;3.03;;
53835;SDS011;39737;43.334;21.936;2022-11-23T06:25:46;71.85;;;33.95;;
53835;SDS011;39737;43.334;21.936;2022-11-23T06:28:39;8.18;;;7.10;;
53835;SDS011;39737;43.334;21.936;2022-11-23T06:31:26;136.07;;;51.08;;
53835;SDS011;39737;43.334;21.936;2022-11-23T06:34:13;13.93;;;7.82;;
53835;SDS011;39737;43.334;21.936;2022-11-23T06:36:59;48.13;;;23.13;;
53835;SDS011;39737;43.334;21.936;2022-11-23T06:39:45;45.22;;;21.23;;
53835;SDS011;39737;43.334;21.936;2022-11-23T06:42:33;5.65;;;4.53;;
53835;SDS011;39737;43.334;21.936;2022-11-23T06:45:28;37.50;;;19.50;;
53835;SDS011;39737;43.334;21.936;2022-11-23T06:48:18;42.22;;;21.10;;
53835;SDS011;39737;43.334;21.936;2022-11-23T06:51:05;32.70;;;17.90;;
53835;SDS011;39737;43.334;21.936;2022-11-23T06:53:53;31.90;;;17.25;;
53835;SDS011;39737;43.334;21.936;2022-11-23T06:56:39;130.55;;;46.17;;
53835;SDS011;39737;43.334;21.936;2022-11-23T06:59:26;115.47;;;43.42;;
53835;SDS011;39737;43.334;21.936;2022-11-23T07:02:12;118.82;;;47.10;;
53835;SDS011;39737;43.334;21.936;2022-11-23T07:04:59;51.08;;;23.48;;
53835;SDS011;39737;43.334;21.936;2022-11-23T07:07:47;30.73;;;15.63;;
53835;SDS011;39737;43.334;21.936;2022-11-23T07:10:39;32.88;;;16.50;;
53835;SDS011;39737;43.334;21.936;2022-11-23T07:13:30;37.53;;;15.35;;
53835;SDS011;39737;43.334;21.936;2022-11-23T07:16:16;33.95;;;14.48;;
53835;SDS011;39737;43.334;21.936;2022-11-23T07:19:02;47.33;;;18.05;;
53835;SDS011;39737;43.334;21.936;2022-11-23T07:21:48;23.30;;;10.45;;
53835;SDS011;39737;43.334;21.936;2022-11-23T07:24:34;53.50;;;27.27;;
53835;SDS011;39737;43.334;21.936;2022-11-23T07:27:26;47.47;;;20.95;;
53835;SDS011;39737;43.334;21.936;2022-11-23T07:30:13;36.47;;;18.10;;
53835;SDS011;39737;43.334;21.936;2022-11-23T07:33:04;37.00;;;18.30;;
53835;SDS011;39737;43.334;21.936;2022-11-23T07:35:50;39.38;;;22.70;;
53835;SDS011;39737;43.334;21.936;2022-11-23T07:38:38;27.25;;;14.88;;
53835;SDS011;39737;43.334;21.936;2022-11-23T07:41:42;6.30;;;3.70;;
53835;SDS011;39737;43.334;21.936;2022-11-23T07:44:44;67.07;;;30.40;;
53835;SDS011;39737;43.334;21.936;2022-11-23T07:47:30;69.32;;;33.65;;
53835;SDS011;39737;43.334;21.936;2022-11-23T07:50:16;74.82;;;35.35;;
53835;SDS011;39737;43.334;21.936;2022-11-23T07:53:02;93.07;;;39.40;;
53835;SDS011;39737;43.334;21.936;2022-11-23T07:55:48;46.38;;;20.30;;
53835;SDS011;39737;43.334;21.936;2022-11-23T07:58:35;44.83;;;22.67;;
53835;SDS011;39737;43.334;21.936;2022-11-23T08:01:21;28.42;;;14.60;;
53835;SDS011;39737;43.334;21.936;2022-11-23T08:04:07;36.22;;;15.48;;
53835;SDS011;39737;43.334;21.936;2022-11-23T08:06:53;3.13;;;2.75;;
53835;SDS011;39737;43.334;21.936;2022-11-23T08:09:40;35.50;;;16.83;;
53835;SDS011;39737;43.334;21.936;2022-11-23T08:12:26;10.27;;;3.75;;
53835;SDS011;39737;43.334;21.936;2022-11-23T08:15:12;40.08;;;16.88;;
53835;SDS011;39737;43.334;21.936;2022-11-23T08:17:59;32.33;;;15.05;;
53835;SDS011;39737;43.334;21.936;2022-11-23T08:20:48;2.63;;;2.40;;
53835;SDS011;39737;43.334;21.936;2022-11-23T08:23:34;4.25;;;3.13;;
53835;SDS011;39737;43.334;21.936;2022-11-23T08:26:20;64.82;;;26.40;;
53835;SDS011;39737;43.334;21.936;2022-11-23T08:29:06;55.17;;;25.17;;
53835;SDS011;39737;43.334;21.936;2022-11-23T08:31:52;38.83;;;19.73;;
53835;SDS011;39737;43.334;21.936;2022-11-23T08:34:38;14.75;;;3.67;;
53835;SDS011;39737;43.334;21.936;2022-11-23T08:37:27;62.60;;;28.52;;
53835;SDS011;39737;43.334;21.936;2022-11-23T08:40:14;50.03;;;24.38;;
53835;SDS011;39737;43.334;21.936;2022-11-23T08:43:06;44.20;;;23.65;;
53835;SDS011;39737;43.334;21.936;2022-11-23T08:45:59;60.40;;;28.95;;
53835;SDS011;39737;43.334;21.936;2022-11-23T08:48:52;64.65;;;25.58;;
53835;SDS011;39737;43.334;21.936;2022-11-23T08:51:38;36.22;;;19.23;;
53835;SDS011;39737;43.334;21.936;2022-11-23T08:54:24;36.08;;;16.63;;
53835;SDS011;39737;43.334;21.936;2022-11-23T08:57:10;31.60;;;14.65;;
53835;SDS011;39737;43.334;21.936;2022-11-23T09:00:15;36.38;;;14.88;;
53835;SDS011;39737;43.334;21.936;2022-11-23T09:03:02;28.40;;;14.68;;
53835;SDS011;39737;43.334;21.936;2022-11-23T09:05:48;38.53;;;20.63;;
53835;SDS011;39737;43.334;21.936;2022-11-23T09:08:36;57.70;;;26.20;;
53835;SDS011;39737;43.334;21.936;2022-11-23T09:11:22;43.95;;;21.63;;
53835;SDS011;39737;43.334;21.936;2022-11-23T09:14:27;41.67;;;20.98;;
53835;SDS011;39737;43.334;21.936;2022-11-23T09:17:13;56.15;;;23.63;;
53835;SDS011;39737;43.334;21.936;2022-11-23T09:19:59;10.20;;;5.63;;
53835;SDS011;39737;43.334;21.936;2022-11-23T09:22:52;71.93;;;28.38;;
53835;SDS011;39737;43.334;21.936;2022-11-23T09:25:38;72.60;;;30.42;;
53835;SDS011;39737;43.334;21.936;2022-11-23T09:28:25;93.45;;;36.13;;
53835;SDS011;39737;43.334;21.936;2022-11-23T09:31:13;62.13;;;28.13;;
53835;SDS011;39737;43.334;21.936;2022-11-23T09:33:59;68.10;;;27.73;;
53835;SDS011;39737;43.334;21.936;2022-11-23T09:36:45;63.50;;;29.88;;
53835;SDS011;39737;43.334;21.936;2022-11-23T09:39:34;80.68;;;41.03;;
53835;SDS011;39737;43.334;21.936;2022-11-23T09:45:25;54.65;;;31.65;;
53835;SDS011;39737;43.334;21.936;2022-11-23T09:53:59;88.07;;;39.50;;
53835;SDS011;39737;43.334;21.936;2022-11-23T09:56:50;67.40;;;31.48;;
53835;SDS011;39737;43.334;21.936;2022-11-23T10:00:05;61.25;;;31.42;;
53835;SDS011;39737;43.334;21.936;2022-11-23T10:02:52;61.80;;;30.45;;
53835;SDS011;39737;43.334;21.936;2022-11-23T10:05:39;57.75;;;27.83;;
53835;SDS011;39737;43.334;21.936;2022-11-23T10:17:28;60.30;;;23.90;;
53835;SDS011;39737;43.334;21.936;2022-11-23T10:23:16;33.63;;;14.75;;
53835;SDS011;39737;43.334;21.936;2022-11-23T10:26:03;24.08;;;10.82;;
53835;SDS011;39737;43.334;21.936;2022-11-23T10:28:49;22.23;;;10.30;;
53835;SDS011;39737;43.334;21.936;2022-11-23T10:31:36;16.95;;;7.32;;
53835;SDS011;39737;43.334;21.936;2022-11-23T10:34:54;11.13;;;5.20;;
53835;SDS011;39737;43.334;21.936;2022-11-23T10:37:43;12.38;;;5.65;;
53835;SDS011;39737;43.334;21.936;2022-11-23T10:40:29;12.77;;;6.93;;
53835;SDS011;39737;43.334;21.936;2022-11-23T10:43:17;16.27;;;6.10;;
53835;SDS011;39737;43.334;21.936;2022-11-23T10:46:22;14.40;;;8.27;;
53835;SDS011;39737;43.334;21.936;2022-11-23T10:49:12;28.88;;;12.45;;
53835;SDS011;39737;43.334;21.936;2022-11-23T10:52:04;25.42;;;12.30;;
53835;SDS011;39737;43.334;21.936;2022-11-23T10:54:53;29.00;;;13.40;;
53835;SDS011;39737;43.334;21.936;2022-11-23T10:57:42;71.88;;;34.08;;
53835;SDS011;39737;43.334;21.936;2022-11-23T11:00:30;85.28;;;37.92;;
53835;SDS011;39737;43.334;21.936;2022-11-23T11:03:35;36.92;;;18.45;;
53835;SDS011;39737;43.334;21.936;2022-11-23T11:06:25;20.15;;;10.35;;
53835;SDS011;39737;43.334;21.936;2022-11-23T11:09:19;43.30;;;17.95;;
53835;SDS011;39737;43.334;21.936;2022-11-23T11:12:13;52.85;;;23.33;;
53835;SDS011;39737;43.334;21.936;2022-11-23T11:17:57;64.07;;;27.52;;
53835;SDS011;39737;43.334;21.936;2022-11-23T11:20:44;66.60;;;27.05;;
53835;SDS011;39737;43.334;21.936;2022-11-23T11:23:30;35.53;;;15.45;;
53835;SDS011;39737;43.334;21.936;2022-11-23T11:26:26;36.03;;;16.40;;
53835;SDS011;39737;43.334;21.936;2022-11-23T11:29:21;88.03;;;34.95;;
53835;SDS011;39737;43.334;21.936;2022-11-23T11:38:39;83.47;;;35.33;;
53835;SDS011;39737;43.334;21.936;2022-11-23T11:41:18;58.83;;;30.13;;
53835;SDS011;39737;43.334;21.936;2022-11-23T11:44:15;56.63;;;24.48;;
53835;SDS011;39737;43.334;21.936;2022-11-23T11:47:46;42.08;;;17.80;;
53835;SDS011;39737;43.334;21.936;2022-11-23T11:50:28;54.15;;;26.23;;
53835;SDS011;39737;43.334;21.936;2022-11-23T11:53:33;42.50;;;23.08;;
53835;SDS011;39737;43.334;21.936;2022-11-23T12:02:17;26.30;;;13.10;;
53835;SDS011;39737;43.334;21.936;2022-11-23T12:08:12;29.20;;;13.30;;
53835;SDS011;39737;43.334;21.936;2022-11-23T12:10:59;32.72;;;17.23;;
53835;SDS011;39737;43.334;21.936;2022-11-23T12:13:46;26.63;;;9.77;;
53835;SDS011;39737;43.334;21.936;2022-11-23T12:25:29;26.20;;;12.27;;
53835;SDS011;39737;43.334;21.936;2022-11-23T12:54:53;50.22;;;24.15;;
53835;SDS011;39737;43.334;21.936;2022-11-23T12:57:43;20.73;;;10.98;;
53835;SDS011;39737;43.334;21.936;2022-11-23T13:00:41;59.63;;;23.77;;
53835;SDS011;39737;43.334;21.936;2022-11-23T13:03:38;61.95;;;28.42;;
53835;SDS011;39737;43.334;21.936;2022-11-23T13:09:56;74.50;;;31.23;;
53835;SDS011;39737;43.334;21.936;2022-11-23T13:13:15;56.53;;;27.02;;
53835;SDS011;39737;43.334;21.936;2022-11-23T13:16:20;67.80;;;29.65;;
53835;SDS011;39737;43.334;21.936;2022-11-23T13:22:15;24.48;;;13.88;;
53835;SDS011;39737;43.334;21.936;2022-11-23T13:27:57;121.78;;;49.75;;
53835;SDS011;39737;43.334;21.936;2022-11-23T13:30:43;41.58;;;19.40;;
53835;SDS011;39737;43.334;21.936;2022-11-23T13:33:50;61.65;;;28.20;;
53835;SDS011;39737;43.334;21.936;2022-11-23T13:36:38;42.60;;;18.25;;
53835;SDS011;39737;43.334;21.936;2022-11-23T13:42:39;23.10;;;12.25;;
53835;SDS011;39737;43.334;21.936;2022-11-23T13:45:37;61.78;;;25.73;;
53835;SDS011;39737;43.334;21.936;2022-11-23T13:48:23;78.00;;;34.90;;
53835;SDS011;39737;43.334;21.936;2022-11-23T13:51:29;71.78;;;30.63;;
53835;SDS011;39737;43.334;21.936;2022-11-23T13:54:19;56.40;;;23.65;;
53835;SDS011;39737;43.334;21.936;2022-11-23T13:57:09;95.05;;;37.75;;
53835;SDS011;39737;43.334;21.936;2022-11-23T14:14:50;84.05;;;37.03;;
53835;SDS011;39737;43.334;21.936;2022-11-23T14:17:45;147.30;;;57.08;;
53835;SDS011;39737;43.334;21.936;2022-11-23T14:20:42;46.50;;;23.73;;
53835;SDS011;39737;43.334;21.936;2022-11-23T14:23:45;64.28;;;30.77;;
53835;SDS011;39737;43.334;21.936;2022-11-23T14:29:49;99.97;;;47.97;;
53835;SDS011;39737;43.334;21.936;2022-11-23T14:32:49;96.80;;;43.78;;
53835;SDS011;39737;43.334;21.936;2022-11-23T14:38:33;49.97;;;21.83;;
53835;SDS011;39737;43.334;21.936;2022-11-23T14:41:25;43.47;;;18.80;;
53835;SDS011;39737;43.334;21.936;2022-11-23T14:44:12;67.57;;;28.08;;
53835;SDS011;39737;43.334;21.936;2022-11-23T14:47:03;45.72;;;21.42;;
53835;SDS011;39737;43.334;21.936;2022-11-23T14:49:50;56.38;;;27.92;;
53835;SDS011;39737;43.334;21.936;2022-11-23T14:52:36;60.15;;;26.83;;
53835;SDS011;39737;43.334;21.936;2022-11-23T14:55:23;59.13;;;27.70;;
53835;SDS011;39737;43.334;21.936;2022-11-23T14:58:10;79.75;;;33.55;;
53835;SDS011;39737;43.334;21.936;2022-11-23T15:00:59;69.63;;;31.15;;
53835;SDS011;39737;43.334;21.936;2022-11-23T15:04:08;91.18;;;45.78;;
53835;SDS011;39737;43.334;21.936;2022-11-23T15:06:54;87.93;;;40.90;;
53835;SDS011;39737;43.334;21.936;2022-11-23T15:12:47;113.30;;;55.17;;
53835;SDS011;39737;43.334;21.936;2022-11-23T15:15:33;142.52;;;58.10;;
53835;SDS011;39737;43.334;21.936;2022-11-23T15:18:34;115.78;;;57.08;;
53835;SDS011;39737;43.334;21.936;2022-11-23T15:21:24;102.88;;;44.35;;
53835;SDS011;39737;43.334;21.936;2022-11-23T15:24:22;162.52;;;65.47;;
53835;SDS011;39737;43.334;21.936;2022-11-23T15:27:13;116.65;;;51.42;;
53835;SDS011;39737;43.334;21.936;2022-11-23T15:30:01;163.25;;;69.82;;
53835;SDS011;39737;43.334;21.936;2022-11-23T15:33:01;110.13;;;51.13;;
53835;SDS011;39737;43.334;21.936;2022-11-23T15:35:50;105.10;;;50.45;;
53835;SDS011;39737;43.334;21.936;2022-11-23T15:38:38;111.63;;;54.13;;
53835;SDS011;39737;43.334;21.936;2022-11-23T15:41:24;102.22;;;41.60;;
53835;SDS011;39737;43.334;21.936;2022-11-23T15:44:15;95.57;;;40.70;;
53835;SDS011;39737;43.334;21.936;2022-11-23T15:47:04;74.45;;;34.03;;
53835;SDS011;39737;43.334;21.936;2022-11-23T15:50:00;179.05;;;72.45;;
53835;SDS011;39737;43.334;21.936;2022-11-23T15:52:49;179.60;;;69.18;;
53835;SDS011;39737;43.334;21.936;2022-11-23T15:55:38;287.73;;;84.28;;
53835;SDS011;39737;43.334;21.936;2022-11-23T15:58:27;354.25;;;109.13;;
53835;SDS011;39737;43.334;21.936;2022-11-23T16:01:14;219.65;;;71.07;;
53835;SDS011;39737;43.334;21.936;2022-11-23T16:04:01;283.85;;;95.10;;
53835;SDS011;39737;43.334;21.936;2022-11-23T16:06:49;203.63;;;79.03;;
53835;SDS011;39737;43.334;21.936;2022-11-23T16:09:39;215.52;;;103.15;;
53835;SDS011;39737;43.334;21.936;2022-11-23T16:12:45;172.85;;;67.57;;
53835;SDS011;39737;43.334;21.936;2022-11-23T16:18:23;78.43;;;31.65;;
53835;SDS011;39737;43.334;21.936;2022-11-23T16:21:30;5.97;;;4.70;;
53835;SDS011;39737;43.334;21.936;2022-11-23T16:24:20;39.53;;;17.55;;
53835;SDS011;39737;43.334;21.936;2022-11-23T16:27:12;36.92;;;15.32;;
53835;SDS011;39737;43.334;21.936;2022-11-23T16:29:59;40.10;;;17.52;;
53835;SDS011;39737;43.334;21.936;2022-11-23T16:32:48;28.75;;;14.27;;
53835;SDS011;39737;43.334;21.936;2022-11-23T16:35:34;31.30;;;13.85;;
53835;SDS011;39737;43.334;21.936;2022-11-23T16:38:21;59.05;;;20.98;;
53835;SDS011;39737;43.334;21.936;2022-11-23T16:41:26;35.08;;;15.90;;
53835;SDS011;39737;43.334;21.936;2022-11-23T16:44:14;1.52;;;1.27;;
53835;SDS011;39737;43.334;21.936;2022-11-23T16:50:16;34.53;;;16.02;;
53835;SDS011;39737;43.334;21.936;2022-11-23T16:53:10;38.67;;;14.15;;
53835;SDS011;39737;43.334;21.936;2022-11-23T16:56:01;21.52;;;11.57;;
53835;SDS011;39737;43.334;21.936;2022-11-23T16:58:48;4.55;;;3.60;;
53835;SDS011;39737;43.334;21.936;2022-11-23T17:01:34;25.83;;;11.00;;
53835;SDS011;39737;43.334;21.936;2022-11-23T17:07:38;21.75;;;11.35;;
53835;SDS011;39737;43.334;21.936;2022-11-23T17:10:33;20.90;;;9.43;;
53835;SDS011;39737;43.334;21.936;2022-11-23T17:13:26;2.63;;;2.42;;
53835;SDS011;39737;43.334;21.936;2022-11-23T17:16:20;12.85;;;7.53;;
53835;SDS011;39737;43.334;21.936;2022-11-23T17:19:13;3.83;;;2.78;;
53835;SDS011;39737;43.334;21.936;2022-11-23T17:24:46;24.80;;;11.90;;
53835;SDS011;39737;43.334;21.936;2022-11-23T17:27:32;3.75;;;2.22;;
53835;SDS011;39737;43.334;21.936;2022-11-23T17:30:24;2.35;;;2.15;;
53835;SDS011;39737;43.334;21.936;2022-11-23T17:33:11;26.73;;;12.60;;
53835;SDS011;39737;43.334;21.936;2022-11-23T17:35:57;60.15;;;21.35;;
53835;SDS011;39737;43.334;21.936;2022-11-23T17:38:44;39.55;;;15.48;;
53835;SDS011;39737;43.334;21.936;2022-11-23T17:41:31;85.18;;;30.35;;
53835;SDS011;39737;43.334;21.936;2022-11-23T17:44:18;93.07;;;33.17;;
53835;SDS011;39737;43.334;21.936;2022-11-23T17:47:04;68.88;;;26.27;;
53835;SDS011;39737;43.334;21.936;2022-11-23T17:49:51;49.20;;;20.27;;
53835;SDS011;39737;43.334;21.936;2022-11-23T17:52:37;105.40;;;39.13;;
53835;SDS011;39737;43.334;21.936;2022-11-23T17:55:26;57.40;;;23.98;;
53835;SDS011;39737;43.334;21.936;2022-11-23T17:58:12;88.85;;;33.25;;
53835;SDS011;39737;43.334;21.936;2022-11-23T18:00:59;9.80;;;6.03;;
53835;SDS011;39737;43.334;21.936;2022-11-23T18:03:45;52.13;;;19.67;;
53835;SDS011;39737;43.334;21.936;2022-11-23T18:06:31;49.22;;;18.52;;
53835;SDS011;39737;43.334;21.936;2022-11-23T18:09:17;34.25;;;15.27;;
53835;SDS011;39737;43.334;21.936;2022-11-23T18:12:04;55.33;;;19.67;;
53835;SDS011;39737;43.334;21.936;2022-11-23T18:14:50;44.72;;;19.25;;
53835;SDS011;39737;43.334;21.936;2022-11-23T18:17:36;60.63;;;24.13;;
53835;SDS011;39737;43.334;21.936;2022-11-23T18:20:25;67.85;;;25.80;;
53835;SDS011;39737;43.334;21.936;2022-11-23T18:23:11;53.13;;;20.10;;
53835;SDS011;39737;43.334;21.936;2022-11-23T18:26:02;4.68;;;2.13;;
53835;SDS011;39737;43.334;21.936;2022-11-23T18:28:48;41.33;;;17.13;;
53835;SDS011;39737;43.334;21.936;2022-11-23T18:31:34;57.47;;;19.15;;
53835;SDS011;39737;43.334;21.936;2022-11-23T18:34:20;9.32;;;4.22;;
53835;SDS011;39737;43.334;21.936;2022-11-23T18:37:06;29.30;;;12.60;;
53835;SDS011;39737;43.334;21.936;2022-11-23T18:39:53;41.90;;;15.93;;
53835;SDS011;39737;43.334;21.936;2022-11-23T18:42:39;5.32;;;3.90;;